createdAt,value
2022-08-24T00:01:56.147Z,24.80
2022-08-24T00:04:24.531Z,24.80
2022-08-24T00:06:52.547Z,24.90
2022-08-24T00:09:20.635Z,24.80
2022-08-24T00:11:48.770Z,24.90
2022-08-24T00:14:18.165Z,24.90
2022-08-24T00:16:46.662Z,24.80
2022-08-24T00:19:15.250Z,24.80
2022-08-24T00:21:43.247Z,24.80
2022-08-24T00:24:11.539Z,24.80
2022-08-24T00:26:39.797Z,24.80
2022-08-24T00:29:08.328Z,24.80
2022-08-24T00:31:37.684Z,24.80
2022-08-24T00:34:05.861Z,24.80
2022-08-24T00:36:34.018Z,24.80
2022-08-24T00:39:02.056Z,24.80
2022-08-24T00:41:30.553Z,24.80
2022-08-24T00:44:02.099Z,24.80
2022-08-24T00:46:43.577Z,24.80
2022-08-24T00:49:22.830Z,24.80
2022-08-24T00:51:56.364Z,24.80
2022-08-24T00:54:27.642Z,24.80
2022-08-24T00:56:59.879Z,24.80
2022-08-24T00:59:32.561Z,24.80
2022-08-24T01:02:15.309Z,24.80
2022-08-24T01:04:50.550Z,24.80
2022-08-24T01:07:18.355Z,24.80
2022-08-24T01:09:46.367Z,24.80
2022-08-24T01:12:14.515Z,24.80
2022-08-24T01:14:42.575Z,24.70
2022-08-24T01:17:27.982Z,24.80
2022-08-24T01:19:59.489Z,24.70
2022-08-24T01:22:42.151Z,24.70
2022-08-24T01:25:12.032Z,24.70
2022-08-24T01:27:43.451Z,24.70
2022-08-24T01:30:14.958Z,24.70
2022-08-24T01:32:53.086Z,24.70
2022-08-24T01:35:21.129Z,24.70
2022-08-24T01:37:49.871Z,24.70
2022-08-24T01:40:20.820Z,24.70
2022-08-24T01:42:49.967Z,24.70
2022-08-24T01:45:19.493Z,24.70
2022-08-24T01:47:47.687Z,24.70
2022-08-24T01:50:16.203Z,24.70
2022-08-24T01:53:04.460Z,24.70
2022-08-24T01:55:36.269Z,24.70
2022-08-24T01:58:06.030Z,24.70
2022-08-24T02:00:34.989Z,24.70
2022-08-24T02:03:03.905Z,24.70
2022-08-24T02:05:33.238Z,24.70
2022-08-24T02:08:01.393Z,24.70
2022-08-24T02:10:30.241Z,24.70
2022-08-24T02:13:00.367Z,24.60
2022-08-24T02:15:31.535Z,24.70
2022-08-24T02:18:00.204Z,24.70
2022-08-24T02:20:29.303Z,24.70
2022-08-24T02:22:58.616Z,24.60
2022-08-24T02:25:30.127Z,24.60
2022-08-24T02:27:59.864Z,24.60
2022-08-24T02:30:28.971Z,24.60
2022-08-24T02:32:57.249Z,24.60
2022-08-24T02:35:25.550Z,24.60
2022-08-24T02:37:53.959Z,24.60
2022-08-24T02:40:22.214Z,24.60
2022-08-24T02:42:50.269Z,24.60
2022-08-24T02:45:19.825Z,24.60
2022-08-24T02:47:47.919Z,24.60
2022-08-24T02:50:18.746Z,24.60
2022-08-24T02:52:47.283Z,24.60
2022-08-24T02:55:19.971Z,24.60
2022-08-24T02:57:48.927Z,24.60
2022-08-24T03:00:21.332Z,24.60
2022-08-24T03:02:49.433Z,24.60
2022-08-24T03:05:17.443Z,24.60
2022-08-24T03:07:45.512Z,24.50
2022-08-24T03:10:13.702Z,24.60
2022-08-24T03:12:42.285Z,24.50
2022-08-24T03:15:12.727Z,24.50
2022-08-24T03:17:43.138Z,24.50
2022-08-24T03:20:14.914Z,24.50
2022-08-24T03:22:43.300Z,24.50
2022-08-24T03:25:12.271Z,24.50
2022-08-24T03:27:40.537Z,24.50
2022-08-24T03:30:12.831Z,24.50
2022-08-24T03:32:43.162Z,24.50
2022-08-24T03:35:12.862Z,24.50
2022-08-24T03:37:40.972Z,24.50
2022-08-24T03:40:22.218Z,24.50
2022-08-24T03:42:52.011Z,24.50
2022-08-24T03:45:20.689Z,24.50
2022-08-24T03:47:50.161Z,24.50
2022-08-24T03:50:19.131Z,24.50
2022-08-24T03:52:47.201Z,24.50
2022-08-24T03:55:15.286Z,24.60
2022-08-24T03:57:43.242Z,24.50
2022-08-24T04:00:13.642Z,24.50
2022-08-24T04:02:41.665Z,24.50
2022-08-24T04:05:13.005Z,24.50
2022-08-24T04:07:41.046Z,24.50
2022-08-24T04:10:11.332Z,24.50
2022-08-24T04:12:39.305Z,24.50
2022-08-24T04:15:08.262Z,24.50
2022-08-24T04:17:36.283Z,24.40
2022-08-24T04:20:06.776Z,24.50
2022-08-24T04:22:36.775Z,24.40
2022-08-24T04:25:08.889Z,24.50
2022-08-24T04:27:38.223Z,24.40
2022-08-24T04:30:07.069Z,24.50
2022-08-24T04:32:35.270Z,24.40
2022-08-24T04:35:03.496Z,24.40
2022-08-24T04:37:32.280Z,24.50
2022-08-24T04:40:01.662Z,24.40
2022-08-24T04:42:31.594Z,24.40
2022-08-24T04:45:01.668Z,24.40
2022-08-24T04:47:29.686Z,24.40
2022-08-24T04:49:57.656Z,24.40
2022-08-24T04:52:25.694Z,24.40
2022-08-24T04:54:53.762Z,24.40
2022-08-24T04:57:23.083Z,24.40
2022-08-24T04:59:51.137Z,24.40
2022-08-24T05:02:20.899Z,24.40
2022-08-24T05:04:49.388Z,24.40
2022-08-24T05:07:18.304Z,24.30
2022-08-24T05:09:47.243Z,24.30
2022-08-24T05:12:15.282Z,24.30
2022-08-24T05:14:44.654Z,24.30
2022-08-24T05:17:12.646Z,24.30
2022-08-24T05:19:40.668Z,24.30
2022-08-24T05:22:08.920Z,24.30
2022-08-24T05:24:36.863Z,24.30
2022-08-24T05:27:05.118Z,24.30
2022-08-24T05:29:34.747Z,24.30
2022-08-24T05:32:05.283Z,24.30
2022-08-24T05:34:33.340Z,24.30
2022-08-24T05:37:01.347Z,24.30
2022-08-24T05:39:31.055Z,24.30
2022-08-24T05:41:59.809Z,24.30
2022-08-24T05:44:31.052Z,24.30
2022-08-24T05:47:01.114Z,24.30
2022-08-24T05:49:31.033Z,24.30
2022-08-24T05:51:59.048Z,24.30
2022-08-24T05:54:27.351Z,24.30
2022-08-24T05:56:57.297Z,24.30
2022-08-24T05:59:25.305Z,24.30
2022-08-24T06:01:53.506Z,24.30
2022-08-24T06:04:21.779Z,24.30
2022-08-24T06:06:51.150Z,24.30
2022-08-24T06:09:19.282Z,24.30
2022-08-24T06:11:48.517Z,24.30
2022-08-24T06:14:18.659Z,24.30
2022-08-24T06:16:48.603Z,24.40
2022-08-24T06:19:18.994Z,24.30
2022-08-24T06:21:49.905Z,24.40
2022-08-24T06:24:41.363Z,24.30
2022-08-24T06:27:23.776Z,24.30
2022-08-24T06:29:53.113Z,24.30
2022-08-24T06:32:21.607Z,24.30
2022-08-24T06:34:49.801Z,24.30
2022-08-24T06:37:19.105Z,24.30
2022-08-24T06:39:49.579Z,24.40
2022-08-24T06:42:25.466Z,24.30
2022-08-24T06:44:53.605Z,24.40
2022-08-24T06:47:22.106Z,24.40
2022-08-24T06:49:50.286Z,24.40
2022-08-24T06:52:18.243Z,24.40
2022-08-24T06:54:46.273Z,24.40
2022-08-24T06:57:15.603Z,24.40
2022-08-24T06:59:44.775Z,24.50
2022-08-24T07:02:15.813Z,24.50
2022-08-24T07:04:43.780Z,24.40
2022-08-24T07:07:13.846Z,24.40
2022-08-24T07:09:44.576Z,24.40
2022-08-24T07:12:14.003Z,24.30
2022-08-24T07:14:43.352Z,24.30
2022-08-24T07:17:11.428Z,24.30
2022-08-24T07:19:39.457Z,24.30
2022-08-24T07:22:08.723Z,24.30
2022-08-24T07:24:37.686Z,24.30
2022-08-24T07:27:06.415Z,24.30
2022-08-24T07:29:48.830Z,24.30
2022-08-24T07:32:22.510Z,24.30
2022-08-24T07:34:50.587Z,24.30
2022-08-24T07:37:18.753Z,24.30
2022-08-24T07:39:49.500Z,24.30
2022-08-24T07:42:25.580Z,24.30
2022-08-24T07:44:57.651Z,24.30
2022-08-24T07:47:38.518Z,24.30
2022-08-24T07:50:08.614Z,24.30
2022-08-24T07:52:36.589Z,24.30
2022-08-24T07:55:05.597Z,24.30
2022-08-24T07:57:33.595Z,24.30
2022-08-24T08:00:02.337Z,24.30
2022-08-24T08:02:36.224Z,24.40
2022-08-24T08:05:04.956Z,24.40
2022-08-24T08:07:32.982Z,24.40
2022-08-24T08:10:02.344Z,24.40
2022-08-24T08:12:30.473Z,24.40
2022-08-24T08:14:58.514Z,24.40
2022-08-24T08:17:26.602Z,24.40
2022-08-24T08:19:55.949Z,24.40
2022-08-24T08:22:41.183Z,24.40
2022-08-24T08:25:09.315Z,24.40
2022-08-24T08:27:37.677Z,24.40
2022-08-24T08:30:06.755Z,24.50
2022-08-24T08:32:35.041Z,24.40
2022-08-24T08:35:04.996Z,24.50
2022-08-24T08:37:33.277Z,24.50
2022-08-24T08:40:01.482Z,24.50
2022-08-24T08:42:44.553Z,24.50
2022-08-24T08:45:48.862Z,24.60
2022-08-24T08:49:00.944Z,24.60
2022-08-24T08:52:01.126Z,24.60
2022-08-24T08:54:39.718Z,24.70
2022-08-24T08:57:32.549Z,24.70
2022-08-24T09:00:09.936Z,24.70
2022-08-24T09:03:18.487Z,24.70
2022-08-24T09:06:12.537Z,24.70
2022-08-24T09:08:57.460Z,24.70
2022-08-24T09:11:34.866Z,24.70
2022-08-24T09:14:20.930Z,24.70
2022-08-24T09:17:08.477Z,24.70
2022-08-24T09:19:56.731Z,24.80
2022-08-24T09:22:25.105Z,24.80
2022-08-24T09:25:20.235Z,24.80
2022-08-24T09:28:05.287Z,24.80
2022-08-24T09:30:44.742Z,24.80
2022-08-24T09:33:21.488Z,24.80
2022-08-24T09:36:08.898Z,24.90
2022-08-24T09:38:59.933Z,24.90
2022-08-24T09:42:09.654Z,24.90
2022-08-24T09:45:10.792Z,24.90
2022-08-24T09:48:16.861Z,24.90
2022-08-24T09:51:23.104Z,24.90
2022-08-24T09:54:51.346Z,24.90
2022-08-24T09:57:50.201Z,24.90
2022-08-24T10:00:25.123Z,25.00
2022-08-24T10:03:15.433Z,25.00
2022-08-24T10:06:10.468Z,24.90
2022-08-24T10:08:51.269Z,24.90
2022-08-24T10:11:26.486Z,25.00
2022-08-24T10:14:02.083Z,25.00
2022-08-24T10:16:40.772Z,25.00
2022-08-24T10:19:21.951Z,25.00
2022-08-24T10:21:59.679Z,25.00
2022-08-24T10:24:47.967Z,25.00
2022-08-24T10:27:36.143Z,25.10
2022-08-24T10:30:27.907Z,25.00
2022-08-24T10:33:09.971Z,25.00
2022-08-24T10:36:09.552Z,25.00
2022-08-24T10:39:04.940Z,25.00
2022-08-24T10:42:04.042Z,25.00
2022-08-24T10:44:58.326Z,25.10
2022-08-24T10:47:30.953Z,25.00
2022-08-24T10:50:31.326Z,25.00
2022-08-24T10:53:24.311Z,25.10
2022-08-24T10:56:07.123Z,25.10
2022-08-24T10:59:03.506Z,25.10
2022-08-24T11:01:35.024Z,25.10
2022-08-24T11:04:08.598Z,25.10
2022-08-24T11:06:39.849Z,25.10
2022-08-24T11:09:15.963Z,25.10
2022-08-24T11:11:48.621Z,25.10
2022-08-24T11:14:26.863Z,25.10
2022-08-24T11:16:57.888Z,25.10
2022-08-24T11:19:34.062Z,25.10
2022-08-24T11:22:05.549Z,25.10
2022-08-24T11:24:44.294Z,25.10
2022-08-24T11:27:24.732Z,25.10
2022-08-24T11:30:01.454Z,25.10
2022-08-24T11:32:38.835Z,25.10
2022-08-24T11:35:16.003Z,25.20
2022-08-24T11:37:44.253Z,25.10
2022-08-24T11:40:14.679Z,25.20
2022-08-24T11:43:05.924Z,25.20
2022-08-24T11:45:40.159Z,25.20
2022-08-24T11:48:17.939Z,25.20
2022-08-24T11:50:52.826Z,25.20
2022-08-24T11:53:33.232Z,25.20
2022-08-24T11:56:09.117Z,25.20
2022-08-24T11:58:46.674Z,25.20
2022-08-24T12:01:21.581Z,25.20
2022-08-24T12:04:06.895Z,25.20
2022-08-24T12:06:47.438Z,25.20
2022-08-24T12:09:27.635Z,25.20
2022-08-24T12:12:04.311Z,25.20
2022-08-24T12:14:39.319Z,25.30
2022-08-24T12:17:16.262Z,25.30
2022-08-24T12:19:50.849Z,25.30
2022-08-24T12:22:20.715Z,25.30
2022-08-24T12:24:51.343Z,25.30
2022-08-24T12:27:24.423Z,25.30
2022-08-24T12:29:57.255Z,25.30
2022-08-24T12:32:27.933Z,25.30
2022-08-24T12:35:01.851Z,25.30
2022-08-24T12:37:34.933Z,25.30
2022-08-24T12:40:11.254Z,25.30
2022-08-24T12:42:52.051Z,25.30
2022-08-24T12:45:24.932Z,25.30
2022-08-24T12:47:59.899Z,25.40
2022-08-24T12:50:34.009Z,25.40
2022-08-24T12:53:38.048Z,25.40
2022-08-24T12:56:24.684Z,25.40
2022-08-24T12:59:14.994Z,25.40
2022-08-24T13:01:46.359Z,25.40
2022-08-24T13:04:19.470Z,25.40
2022-08-24T13:06:54.262Z,25.40
2022-08-24T13:09:33.017Z,25.40
2022-08-24T13:12:39.642Z,25.40
2022-08-24T13:15:26.418Z,25.40
2022-08-24T13:18:02.291Z,25.40
2022-08-24T13:20:54.779Z,25.40
2022-08-24T13:23:24.183Z,25.40
2022-08-24T13:25:58.516Z,25.40
2022-08-24T13:28:40.278Z,25.40
2022-08-24T13:31:23.106Z,25.40
2022-08-24T13:33:53.588Z,25.40
2022-08-24T13:36:53.672Z,25.40
2022-08-24T13:39:49.769Z,25.40
2022-08-24T13:42:31.452Z,25.50
2022-08-24T13:45:19.343Z,25.50
2022-08-24T13:47:56.310Z,25.50
2022-08-24T13:50:39.683Z,25.50
2022-08-24T13:53:37.404Z,25.50
2022-08-24T13:56:33.965Z,25.50
2022-08-24T13:59:10.803Z,25.50
2022-08-24T14:01:59.084Z,25.50
2022-08-24T14:04:53.076Z,25.60
2022-08-24T14:07:25.178Z,25.60
2022-08-24T14:10:08.006Z,25.50
2022-08-24T14:12:53.675Z,25.60
2022-08-24T14:15:32.333Z,25.60
2022-08-24T14:18:11.371Z,25.50
2022-08-24T14:21:06.760Z,25.60
2022-08-24T14:23:52.408Z,25.60
2022-08-24T14:26:57.728Z,25.60
2022-08-24T14:29:41.505Z,25.70
2022-08-24T14:32:37.112Z,25.70
2022-08-24T14:35:14.949Z,25.70
2022-08-24T14:37:57.108Z,25.80
2022-08-24T14:40:34.881Z,25.80
2022-08-24T14:43:25.046Z,25.80
2022-08-24T14:46:06.263Z,25.80
2022-08-24T14:48:43.827Z,25.90
2022-08-24T14:51:27.920Z,25.90
2022-08-24T14:54:10.065Z,26.00
2022-08-24T14:56:51.675Z,25.90
2022-08-24T14:59:31.551Z,26.00
2022-08-24T15:02:25.705Z,25.90
2022-08-24T15:05:02.151Z,25.90
2022-08-24T15:07:32.774Z,26.00
2022-08-24T15:10:12.145Z,26.00
2022-08-24T15:12:45.543Z,25.90
2022-08-24T15:15:18.988Z,26.00
2022-08-24T15:17:58.429Z,26.00
2022-08-24T15:20:45.342Z,25.90
2022-08-24T15:23:23.012Z,25.90
2022-08-24T15:25:56.709Z,26.00
2022-08-24T15:28:28.174Z,26.00
2022-08-24T15:31:00.070Z,26.00
2022-08-24T15:33:30.611Z,26.00
2022-08-24T15:36:11.442Z,26.10
2022-08-24T15:38:43.442Z,26.10
2022-08-24T15:41:15.377Z,26.10
2022-08-24T15:43:47.703Z,26.10
2022-08-24T15:46:23.337Z,26.10
2022-08-24T15:48:51.941Z,26.10
2022-08-24T15:51:35.415Z,26.10
2022-08-24T15:54:19.675Z,26.10
2022-08-24T15:56:57.047Z,26.10
2022-08-24T15:59:28.626Z,26.10
2022-08-24T16:02:28.721Z,26.20
2022-08-24T16:05:17.692Z,26.10
2022-08-24T16:08:09.346Z,26.10
2022-08-24T16:10:41.093Z,26.10
2022-08-24T16:13:28.201Z,26.10
2022-08-24T16:16:04.303Z,26.20
2022-08-24T16:18:49.150Z,26.20
2022-08-24T16:21:22.627Z,26.20
2022-08-24T16:24:00.827Z,26.20
2022-08-24T16:26:31.426Z,26.20
2022-08-24T16:29:01.232Z,26.20
2022-08-24T16:31:47.962Z,26.20
2022-08-24T16:34:22.360Z,26.20
2022-08-24T16:36:50.802Z,26.20
2022-08-24T16:39:18.865Z,26.10
2022-08-24T16:41:47.086Z,26.20
2022-08-24T16:44:16.510Z,26.20
2022-08-24T16:46:48.168Z,26.20
2022-08-24T16:49:16.321Z,26.20
2022-08-24T16:51:45.561Z,26.20
2022-08-24T16:54:14.220Z,26.20
2022-08-24T16:56:42.765Z,26.20
2022-08-24T16:59:15.046Z,26.20
2022-08-24T17:01:44.400Z,26.20
2022-08-24T17:04:15.138Z,26.20
2022-08-24T17:06:43.376Z,26.20
2022-08-24T17:09:11.784Z,26.20
2022-08-24T17:11:40.368Z,26.20
2022-08-24T17:14:08.388Z,26.20
2022-08-24T17:16:38.803Z,26.20
2022-08-24T17:19:12.693Z,26.30
2022-08-24T17:21:45.606Z,26.20
2022-08-24T17:24:13.700Z,26.20
2022-08-24T17:26:45.705Z,26.20
2022-08-24T17:29:18.581Z,26.30
2022-08-24T17:31:49.739Z,26.30
2022-08-24T17:34:21.444Z,26.30
2022-08-24T17:36:51.174Z,26.20
2022-08-24T17:39:21.843Z,26.30
2022-08-24T17:41:52.316Z,26.30
2022-08-24T17:44:25.049Z,26.30
2022-08-24T17:46:55.392Z,26.20
2022-08-24T17:49:25.237Z,26.20
2022-08-24T17:51:55.167Z,26.20
2022-08-24T17:54:24.075Z,26.30
2022-08-24T17:56:52.774Z,26.30
2022-08-24T17:59:31.125Z,26.30
2022-08-24T18:02:01.720Z,26.30
2022-08-24T18:04:32.664Z,26.30
2022-08-24T18:07:03.260Z,26.20
2022-08-24T18:09:37.135Z,26.30
2022-08-24T18:12:07.022Z,26.30
2022-08-24T18:14:35.428Z,26.30
2022-08-24T18:17:07.905Z,26.30
2022-08-24T18:19:39.636Z,26.20
2022-08-24T18:22:08.426Z,26.20
2022-08-24T18:24:36.383Z,26.30
2022-08-24T18:27:10.068Z,26.30
2022-08-24T18:29:40.800Z,26.30
2022-08-24T18:32:11.673Z,26.30
2022-08-24T18:34:41.923Z,26.30
2022-08-24T18:37:10.335Z,26.30
2022-08-24T18:39:38.312Z,26.30
2022-08-24T18:42:08.912Z,26.20
2022-08-24T18:44:38.829Z,26.30
2022-08-24T18:47:07.121Z,26.30
2022-08-24T18:49:36.055Z,26.20
2022-08-24T18:52:08.503Z,26.30
2022-08-24T18:54:38.740Z,26.30
2022-08-24T18:57:08.619Z,26.20
2022-08-24T18:59:40.699Z,26.30
2022-08-24T19:02:30.560Z,26.20
2022-08-24T19:04:59.943Z,26.20
2022-08-24T19:07:31.464Z,26.20
2022-08-24T19:09:59.808Z,26.20
2022-08-24T19:12:29.064Z,26.20
2022-08-24T19:14:59.959Z,26.20
2022-08-24T19:17:28.438Z,26.30
2022-08-24T19:19:56.457Z,26.20
2022-08-24T19:22:25.037Z,26.20
2022-08-24T19:24:58.302Z,26.20
2022-08-24T19:27:28.773Z,26.20
2022-08-24T19:29:57.047Z,26.20
2022-08-24T19:32:28.123Z,26.20
2022-08-24T19:34:56.542Z,26.20
2022-08-24T19:37:24.787Z,26.20
2022-08-24T19:39:54.147Z,26.20
2022-08-24T19:42:22.819Z,26.20
2022-08-24T19:45:12.114Z,26.20
2022-08-24T19:47:40.778Z,26.20
2022-08-24T19:50:10.625Z,26.20
2022-08-24T19:52:39.795Z,26.20
2022-08-24T19:55:10.383Z,26.20
2022-08-24T19:57:44.218Z,26.20
2022-08-24T20:00:25.784Z,26.10
2022-08-24T20:02:56.414Z,26.10
2022-08-24T20:05:26.719Z,26.20
2022-08-24T20:07:56.333Z,26.10
2022-08-24T20:10:27.049Z,26.10
2022-08-24T20:12:55.094Z,26.10
2022-08-24T20:15:24.910Z,26.10
2022-08-24T20:17:55.707Z,26.10
2022-08-24T20:20:24.767Z,26.10
2022-08-24T20:22:53.086Z,26.10
2022-08-24T20:25:21.408Z,26.10
2022-08-24T20:28:02.136Z,26.10
2022-08-24T20:30:39.281Z,26.10
2022-08-24T20:33:14.197Z,26.10
2022-08-24T20:35:42.485Z,26.10
2022-08-24T20:38:12.145Z,26.10
2022-08-24T20:40:40.130Z,26.10
2022-08-24T20:43:09.536Z,26.10
2022-08-24T20:45:41.707Z,26.10
2022-08-24T20:48:11.975Z,26.10
2022-08-24T20:50:43.487Z,26.10
2022-08-24T20:53:11.703Z,26.10
2022-08-24T20:55:40.050Z,26.10
2022-08-24T20:58:10.089Z,26.10
2022-08-24T21:00:40.857Z,26.10
2022-08-24T21:03:09.013Z,26.10
2022-08-24T21:05:37.232Z,26.00
2022-08-24T21:08:05.857Z,26.10
2022-08-24T21:10:33.889Z,26.10
2022-08-24T21:13:02.553Z,26.10
2022-08-24T21:15:32.422Z,26.10
2022-08-24T21:18:01.527Z,26.10
2022-08-24T21:20:29.555Z,26.10
2022-08-24T21:22:57.543Z,26.10
2022-08-24T21:25:25.708Z,26.10
2022-08-24T21:27:53.884Z,26.10
2022-08-24T21:30:23.412Z,26.10
2022-08-24T21:33:10.092Z,26.10
2022-08-24T21:35:38.166Z,26.10
2022-08-24T21:38:07.805Z,26.10
2022-08-24T21:40:36.366Z,26.00
2022-08-24T21:43:14.643Z,26.00
2022-08-24T21:45:43.303Z,26.10
2022-08-24T21:48:14.561Z,26.10
2022-08-24T21:50:42.706Z,26.10
2022-08-24T21:53:10.790Z,26.10
2022-08-24T21:55:41.662Z,26.00
2022-08-24T21:58:10.238Z,26.10
2022-08-24T22:00:38.507Z,26.10
2022-08-24T22:03:08.530Z,26.10
2022-08-24T22:05:38.300Z,26.10
2022-08-24T22:08:06.361Z,26.10
2022-08-24T22:10:34.339Z,26.10
2022-08-24T22:13:04.433Z,26.10
2022-08-24T22:15:33.777Z,26.10
2022-08-24T22:18:02.382Z,26.10
2022-08-24T22:20:30.390Z,26.10
2022-08-24T22:22:59.733Z,26.10
2022-08-24T22:25:27.824Z,26.10
2022-08-24T22:27:55.866Z,26.10
2022-08-24T22:30:24.073Z,26.10
2022-08-24T22:32:52.103Z,26.10
2022-08-24T22:35:20.298Z,26.10
2022-08-24T22:37:48.308Z,26.10
2022-08-24T22:40:18.955Z,26.10
2022-08-24T22:42:47.301Z,26.10
2022-08-24T22:45:15.614Z,26.10
2022-08-24T22:47:43.549Z,26.10
2022-08-24T22:50:11.754Z,26.10
2022-08-24T22:52:39.716Z,26.10
2022-08-24T22:55:08.790Z,26.10
2022-08-24T22:57:38.155Z,26.10
2022-08-24T23:00:09.939Z,26.10
2022-08-24T23:02:39.906Z,26.10
2022-08-24T23:05:09.772Z,26.10
2022-08-24T23:07:37.681Z,26.10
2022-08-24T23:10:06.989Z,26.10
2022-08-24T23:12:34.999Z,26.00
2022-08-24T23:15:04.707Z,26.00
2022-08-24T23:17:32.638Z,26.10
2022-08-24T23:20:07.695Z,26.00
2022-08-24T23:22:40.017Z,26.00
2022-08-24T23:25:10.415Z,26.10
2022-08-24T23:27:39.031Z,26.00
2022-08-24T23:30:11.786Z,26.00
2022-08-24T23:32:40.792Z,26.00
2022-08-24T23:35:09.687Z,26.00
2022-08-24T23:37:37.728Z,26.00
2022-08-24T23:40:06.646Z,26.00
2022-08-24T23:42:34.629Z,26.00
2022-08-24T23:45:03.888Z,26.00
2022-08-24T23:47:37.347Z,26.00
2022-08-24T23:50:11.003Z,26.00
2022-08-24T23:52:40.217Z,26.00
2022-08-24T23:55:20.078Z,26.00
2022-08-24T23:57:50.142Z,26.00
